Time;durP1;ratioP1;P1;durP2;ratioP2;P2;SDS_P1;SDS_P2;PMS_P1;PMS_P2;Temp;Humidity;BMP_temperature;BMP_pressure;BME280_temperature;BME280_humidity;BME280_pressure;Samples;Min_cycle;Max_cycle;Signal;HPM_P1;HPM_P2
2022/11/02 00:00:32;;;;;;;7.57;1.00;;;13.10;99.90;;;;;;4993400;28;20044;-71
2022/11/02 00:02:58;;;;;;;8.57;1.05;;;13.10;99.90;;;;;;4977797;28;20042;-72
2022/11/02 00:05:25;;;;;;;6.25;0.88;;;13.10;99.90;;;;;;5014647;28;20045;-71
2022/11/02 00:07:52;;;;;;;5.50;0.80;;;13.10;99.90;;;;;;4979347;28;20419;-71
2022/11/02 00:10:23;;;;;;;6.38;1.17;;;13.00;99.90;;;;;;4973860;28;20468;-72
2022/11/02 00:12:52;;;;;;;4.10;0.80;;;13.10;99.90;;;;;;4812280;28;20663;-73
2022/11/02 00:15:37;;;;;;;5.90;1.73;;;12.90;99.90;;;;;;4810388;28;20323;-74
2022/11/02 00:18:08;;;;;;;6.93;0.80;;;12.80;99.90;;;;;;4909311;28;20041;-73
2022/11/02 00:20:38;;;;;;;4.00;1.38;;;12.70;99.90;;;;;;4994624;28;20041;-74
2022/11/02 00:23:09;;;;;;;3.42;0.60;;;12.70;99.90;;;;;;4983151;28;20041;-73
2022/11/02 00:25:45;;;;;;;6.35;1.17;;;12.60;99.90;;;;;;4910291;28;20403;-73
2022/11/02 00:28:28;;;;;;;5.60;0.95;;;12.50;99.90;;;;;;4806380;28;20986;-73
2022/11/02 00:31:04;;;;;;;3.88;0.80;;;12.40;99.90;;;;;;4807397;28;20926;-74
2022/11/02 00:33:37;;;;;;;2.80;0.70;;;12.40;99.90;;;;;;4798681;28;20358;-72
2022/11/02 00:36:14;;;;;;;2.65;0.68;;;12.30;99.90;;;;;;4852979;28;20209;-77
2022/11/02 00:38:49;;;;;;;3.88;0.60;;;12.30;99.90;;;;;;4805161;28;20847;-74
2022/11/02 00:41:19;;;;;;;4.20;0.77;;;12.30;99.90;;;;;;4795411;28;20335;-73
2022/11/02 00:43:51;;;;;;;2.35;0.60;;;12.20;99.90;;;;;;4840575;28;20296;-73
2022/11/02 00:46:19;;;;;;;6.07;1.00;;;12.20;99.90;;;;;;4870002;28;20063;-73
2022/11/02 00:48:45;;;;;;;5.68;1.27;;;12.20;99.90;;;;;;4990700;28;20491;-73
2022/11/02 00:51:11;;;;;;;;;;;12.20;99.90;;;;;;5018758;28;20048;-73
2022/11/02 00:53:46;;;;;;;2.00;0.60;;;12.10;99.90;;;;;;4883283;28;20172;-73
2022/11/02 00:56:13;;;;;;;3.65;0.60;;;12.00;99.90;;;;;;4839104;28;20959;-74
2022/11/02 00:58:39;;;;;;;;;;;12.00;99.90;;;;;;5003887;28;20430;-73
2022/11/02 01:01:07;;;;;;;2.78;0.77;;;12.00;99.90;;;;;;5002585;28;19960;-73
2022/11/02 01:03:33;;;;;;;3.58;0.70;;;12.00;99.90;;;;;;4977807;28;20042;-73
2022/11/02 01:06:07;;;;;;;;;;;11.90;99.90;;;;;;4889609;28;21071;-73
2022/11/02 01:08:35;;;;;;;2.30;0.68;;;11.90;99.90;;;;;;4851879;28;20125;-70
2022/11/02 01:11:12;;;;;;;;;;;11.90;99.90;;;;;;4986705;28;20107;-70
2022/11/02 01:13:37;;;;;;;2.10;0.55;;;11.90;99.90;;;;;;4966566;28;19927;-70
2022/11/02 01:16:04;;;;;;;1.02;0.20;;;11.90;99.90;;;;;;5000121;28;20042;-76
2022/11/02 01:18:30;;;;;;;1.00;0.38;;;11.90;99.90;;;;;;4990708;28;20128;-70
2022/11/02 01:20:56;;;;;;;1.30;0.43;;;11.80;99.90;;;;;;4987835;28;20125;-70
2022/11/02 01:23:22;;;;;;;;;;;11.80;99.90;;;;;;5012174;28;20236;-70
2022/11/02 01:25:48;;;;;;;3.67;0.70;;;11.80;99.90;;;;;;4993407;28;19947;-70
2022/11/02 01:28:13;;;;;;;2.27;0.50;;;11.70;99.90;;;;;;4986917;28;20419;-71
2022/11/02 01:30:39;;;;;;;2.80;0.40;;;11.70;99.90;;;;;;4997194;28;20604;-70
2022/11/02 01:33:06;;;;;;;0.95;0.52;;;11.70;99.90;;;;;;4978552;28;20519;-70
2022/11/02 01:35:31;;;;;;;2.78;0.50;;;11.70;99.90;;;;;;4987969;28;20129;-70
2022/11/02 01:37:57;;;;;;;0.70;0.40;;;11.70;99.90;;;;;;4980654;28;20146;-70
2022/11/02 01:40:23;;;;;;;0.90;0.50;;;11.80;99.90;;;;;;4998432;28;20052;-71
2022/11/02 01:42:48;;;;;;;3.43;0.67;;;11.80;99.90;;;;;;4981599;28;20814;-70
2022/11/02 01:45:14;;;;;;;1.03;0.40;;;11.80;99.90;;;;;;5003073;28;20374;-71
2022/11/02 01:47:44;;;;;;;4.17;0.63;;;11.80;99.90;;;;;;4989494;28;20411;-71
2022/11/02 01:50:26;;;;;;;2.05;0.50;;;11.80;99.90;;;;;;4986734;28;20369;-71
2022/11/02 01:52:52;;;;;;;2.70;0.60;;;11.70;99.90;;;;;;5004319;28;20513;-71
2022/11/02 01:55:28;;;;;;;5.32;0.95;;;11.70;99.90;;;;;;4978220;28;20042;-71
2022/11/02 01:58:00;;;;;;;0.73;0.28;;;11.60;99.90;;;;;;4989317;28;20104;-71
2022/11/02 02:00:26;;;;;;;1.17;0.20;;;11.60;99.90;;;;;;5008213;28;20107;-70
2022/11/02 02:03:06;;;;;;;1.63;0.50;;;11.50;99.90;;;;;;5010464;28;20352;-71
2022/11/02 02:05:37;;;;;;;1.67;0.63;;;11.40;99.90;;;;;;4983562;28;20346;-71
2022/11/02 02:08:03;;;;;;;1.05;0.40;;;11.40;99.90;;;;;;5002642;28;20079;-70
2022/11/02 02:10:29;;;;;;;1.23;0.30;;;11.30;99.90;;;;;;5004023;28;20035;-71
2022/11/02 02:12:54;;;;;;;2.03;0.30;;;11.30;99.90;;;;;;4979830;28;20115;-70
2022/11/02 02:15:33;;;;;;;0.80;0.33;;;11.30;99.90;;;;;;4982925;28;20100;-70
2022/11/02 02:18:25;;;;;;;2.22;0.47;;;11.30;99.90;;;;;;4969165;28;20136;-70
2022/11/02 02:21:02;;;;;;;1.60;0.50;;;11.20;99.90;;;;;;5005918;28;20132;-70
2022/11/02 02:24:15;;;;;;;2.60;0.60;;;11.20;99.90;;;;;;4993278;28;20050;-71
2022/11/02 02:27:06;;;;;;;1.55;0.55;;;11.20;99.90;;;;;;4926507;28;20046;-71
2022/11/02 02:30:11;;;;;;;1.77;0.80;;;11.20;99.90;;;;;;4979054;28;20088;-71
2022/11/02 02:32:42;;;;;;;1.40;0.80;;;11.20;99.90;;;;;;4983977;28;20050;-70
2022/11/02 02:35:36;;;;;;;3.40;0.70;;;11.20;99.90;;;;;;4991065;28;20178;-70
2022/11/02 02:38:07;;;;;;;3.38;0.60;;;11.30;99.90;;;;;;5008447;28;20033;-69
2022/11/02 02:40:47;;;;;;;5.20;0.77;;;11.30;99.90;;;;;;4979604;28;20045;-70
2022/11/02 02:43:20;;;;;;;2.30;0.65;;;11.30;99.90;;;;;;4996342;28;20045;-70
2022/11/02 02:45:58;;;;;;;4.35;0.60;;;11.30;99.90;;;;;;4995600;28;20038;-70
2022/11/02 02:48:25;;;;;;;2.05;0.68;;;11.30;99.90;;;;;;5000723;28;20049;-70
2022/11/02 02:50:55;;;;;;;2.20;0.50;;;11.30;99.90;;;;;;4990373;28;20042;-71
2022/11/02 02:53:34;;;;;;;2.28;0.70;;;11.30;99.90;;;;;;4984659;28;20037;-70
2022/11/02 02:56:01;;;;;;;4.32;0.60;;;11.30;99.90;;;;;;4984874;28;20470;-71
2022/11/02 02:58:31;;;;;;;2.10;0.40;;;11.30;99.90;;;;;;4999993;28;20134;-70
2022/11/02 03:00:59;;;;;;;3.78;0.50;;;11.20;99.90;;;;;;5001777;28;20073;-70
2022/11/02 03:03:27;;;;;;;1.25;0.30;;;11.20;99.90;;;;;;5055576;22;20041;-75
2022/11/02 03:06:02;;;;;;;1.60;0.20;;;11.20;99.90;;;;;;5003909;28;20038;-75
2022/11/02 03:08:29;;;;;;;1.33;0.47;;;11.20;99.90;;;;;;4979304;28;20042;-75
2022/11/02 03:11:16;;;;;;;3.15;0.52;;;11.10;99.90;;;;;;5002603;28;20037;-75
2022/11/02 03:13:48;;;;;;;2.25;0.70;;;11.10;99.90;;;;;;4998559;28;20166;-75
2022/11/02 03:16:36;;;;;;;1.08;0.20;;;11.10;99.90;;;;;;4974928;28;20042;-77
2022/11/02 03:19:13;;;;;;;1.17;0.50;;;11.10;99.90;;;;;;5004369;28;20444;-75
2022/11/02 03:21:42;;;;;;;0.70;0.40;;;11.10;99.90;;;;;;4987346;28;20038;-75
2022/11/02 03:24:33;;;;;;;2.92;0.35;;;11.10;99.90;;;;;;4983548;28;20042;-75
2022/11/02 03:27:14;;;;;;;3.58;0.60;;;11.10;99.90;;;;;;5002180;28;20053;-75
2022/11/02 03:30:00;;;;;;;1.20;0.38;;;11.00;99.90;;;;;;4989654;28;20116;-76
2022/11/02 03:32:58;;;;;;;4.05;0.30;;;11.00;99.90;;;;;;4982882;28;20134;-75
2022/11/02 03:35:35;;;;;;;3.57;0.40;;;11.00;99.90;;;;;;4977618;28;20050;-76
2022/11/02 03:38:12;;;;;;;3.45;0.57;;;10.90;99.90;;;;;;4993533;28;20847;-76
2022/11/02 03:40:42;;;;;;;1.67;0.57;;;10.90;99.90;;;;;;4981755;28;20049;-75
2022/11/02 03:43:09;;;;;;;4.13;0.60;;;10.90;99.90;;;;;;4999472;28;20038;-76
2022/11/02 03:45:39;;;;;;;4.75;1.10;;;10.90;99.90;;;;;;4995419;28;20210;-75
2022/11/02 03:48:08;;;;;;;3.83;0.60;;;11.00;99.90;;;;;;4977453;28;20554;-75
2022/11/02 03:50:37;;;;;;;4.90;0.50;;;10.90;99.90;;;;;;4990327;28;20037;-75
2022/11/02 03:53:15;;;;;;;2.67;0.80;;;10.90;99.90;;;;;;4997802;28;20410;-76
2022/11/02 03:55:47;;;;;;;2.78;0.50;;;10.90;99.90;;;;;;4981808;28;20116;-75
2022/11/02 03:58:13;;;;;;;8.45;1.02;;;10.90;99.90;;;;;;4987449;28;20124;-75
2022/11/02 04:00:51;;;;;;;6.93;0.70;;;10.90;99.90;;;;;;4984719;28;20171;-75
2022/11/02 04:03:20;;;;;;;5.05;0.88;;;10.90;99.90;;;;;;4998361;28;20329;-75
2022/11/02 04:05:45;;;;;;;5.55;1.20;;;11.00;99.90;;;;;;4980710;28;20054;-76
2022/11/02 04:08:22;;;;;;;6.33;1.43;;;11.00;99.90;;;;;;4998708;28;20471;-75
2022/11/02 04:16:21;;;;;;;1.63;0.70;;;11.00;99.90;;;;;;4978920;28;20113;-74
2022/11/02 04:21:31;;;;;;;4.97;0.50;;;11.10;99.90;;;;;;4997330;28;20229;-75
2022/11/02 04:26:41;;;;;;;2.60;0.70;;;11.10;99.90;;;;;;4983661;28;20470;-75
2022/11/02 04:29:07;;;;;;;3.53;0.70;;;11.20;99.90;;;;;;5002496;28;20120;-75
2022/11/02 04:31:33;;;;;;;6.03;0.88;;;11.10;99.90;;;;;;4999477;28;20298;-75
2022/11/02 04:33:58;;;;;;;6.83;0.70;;;11.10;99.90;;;;;;4978777;28;20379;-76
2022/11/02 04:36:25;;;;;;;6.15;0.63;;;11.10;99.90;;;;;;5000841;28;20058;-75
2022/11/02 04:38:51;;;;;;;9.98;1.15;;;11.20;99.90;;;;;;4974461;28;20149;-75
2022/11/02 04:44:04;;;;;;;3.25;0.68;;;11.10;99.90;;;;;;4985838;28;20074;-77
2022/11/02 04:46:32;;;;;;;3.75;0.85;;;11.10;99.90;;;;;;4997613;28;20049;-75
2022/11/02 04:48:58;;;;;;;6.38;0.75;;;11.20;99.90;;;;;;5005087;28;20042;-75
2022/11/02 04:51:25;;;;;;;3.90;0.87;;;11.20;99.90;;;;;;5007863;28;20408;-75
2022/11/02 04:53:52;;;;;;;3.38;0.88;;;11.20;99.90;;;;;;4998366;28;20534;-75
2022/11/02 04:56:18;;;;;;;3.78;0.93;;;11.20;99.90;;;;;;4988009;28;20068;-76
2022/11/02 04:58:49;;;;;;;4.00;0.60;;;11.20;99.90;;;;;;5005327;28;20109;-76
2022/11/02 05:01:14;;;;;;;2.95;0.75;;;11.10;99.90;;;;;;4998910;28;20045;-77
2022/11/02 05:03:40;;;;;;;4.43;0.75;;;11.10;99.90;;;;;;5000008;28;20459;-75
2022/11/02 05:06:08;;;;;;;6.85;0.93;;;11.10;99.90;;;;;;4992038;28;20245;-76
2022/11/02 05:08:35;;;;;;;3.05;0.93;;;11.10;99.90;;;;;;4982367;28;20140;-76
2022/11/02 05:11:00;;;;;;;2.88;0.90;;;11.10;99.90;;;;;;4999566;28;20038;-77
2022/11/02 05:13:29;;;;;;;5.13;0.80;;;11.10;99.90;;;;;;4998776;28;20464;-76
2022/11/02 05:15:56;;;;;;;5.28;0.90;;;11.00;99.90;;;;;;5000852;28;20502;-75
2022/11/02 05:18:22;;;;;;;7.35;0.77;;;11.10;99.90;;;;;;5003839;28;20038;-74
2022/11/02 05:20:52;;;;;;;3.75;1.00;;;11.10;99.90;;;;;;5004282;28;20037;-75
2022/11/02 05:23:19;;;;;;;1.52;0.35;;;11.00;99.90;;;;;;4984904;28;20064;-75
2022/11/02 05:25:56;;;;;;;7.07;1.05;;;11.00;99.90;;;;;;4987577;28;20569;-74
2022/11/02 05:28:23;;;;;;;4.75;1.10;;;11.00;99.90;;;;;;4982051;28;20045;-75
2022/11/02 05:30:49;;;;;;;;;;;11.00;99.90;;;;;;4977132;28;20053;-75
2022/11/02 05:33:14;;;;;;;5.22;1.10;;;11.10;99.90;;;;;;4980297;28;19993;-76
2022/11/02 05:35:40;;;;;;;6.10;1.58;;;11.10;99.90;;;;;;5002787;28;20034;-75
2022/11/02 05:38:06;;;;;;;8.18;1.15;;;11.10;99.90;;;;;;4977911;28;20186;-77
2022/11/02 05:40:39;;;;;;;2.87;1.03;;;11.10;99.90;;;;;;4993444;28;20507;-74
2022/11/02 05:43:07;;;;;;;1.33;0.63;;;11.10;99.90;;;;;;4984461;28;20303;-75
2022/11/02 05:45:33;;;;;;;5.38;1.02;;;11.10;99.90;;;;;;4986856;28;20112;-75
2022/11/02 05:48:00;;;;;;;9.10;0.80;;;11.10;99.90;;;;;;4998495;28;20407;-75
2022/11/02 05:50:26;;;;;;;6.03;1.10;;;11.10;99.90;;;;;;4998532;28;20049;-76
2022/11/02 05:52:52;;;;;;;7.20;0.98;;;11.10;99.90;;;;;;4985704;28;20480;-76
2022/11/02 05:55:18;;;;;;;5.40;1.15;;;11.20;99.90;;;;;;4980698;28;20520;-75
2022/11/02 05:57:53;;;;;;;5.93;1.47;;;11.20;99.90;;;;;;4980007;28;20059;-78
2022/11/02 06:00:20;;;;;;;4.53;0.75;;;11.20;99.90;;;;;;4988776;28;20409;-76
2022/11/02 06:02:46;;;;;;;7.05;0.85;;;11.20;99.90;;;;;;4998570;28;20049;-79
2022/11/02 06:05:14;;;;;;;5.55;1.15;;;11.20;99.90;;;;;;4985020;28;20042;-76
2022/11/02 06:07:40;;;;;;;6.57;1.10;;;11.30;99.90;;;;;;4998512;28;20147;-77
2022/11/02 06:10:06;;;;;;;4.13;1.10;;;11.30;99.90;;;;;;5009668;28;20073;-76
2022/11/02 06:12:32;;;;;;;6.00;0.80;;;11.30;99.90;;;;;;4985790;28;20387;-76
2022/11/02 06:14:58;;;;;;;8.13;1.17;;;11.30;99.90;;;;;;4998239;28;20510;-76
2022/11/02 06:17:23;;;;;;;8.70;1.13;;;11.40;99.90;;;;;;4979333;28;20038;-80
2022/11/02 06:19:49;;;;;;;5.47;1.25;;;11.40;99.90;;;;;;4990254;28;20194;-75
2022/11/02 06:22:15;;;;;;;8.10;1.10;;;11.30;99.90;;;;;;4992054;28;20436;-74
2022/11/02 06:24:41;;;;;;;3.63;1.30;;;11.40;99.90;;;;;;5009099;28;20056;-74
2022/11/02 06:27:06;;;;;;;7.10;0.93;;;11.30;99.90;;;;;;4987503;28;20092;-76
2022/11/02 06:29:32;;;;;;;4.85;0.93;;;11.30;99.90;;;;;;4988343;28;20372;-73
2022/11/02 06:31:58;;;;;;;4.10;0.50;;;11.30;99.90;;;;;;5009393;28;20034;-73
2022/11/02 06:34:23;;;;;;;6.03;1.15;;;11.30;99.90;;;;;;4989454;28;20081;-73
2022/11/02 06:36:49;;;;;;;6.47;0.87;;;11.30;99.90;;;;;;5006297;28;20129;-73
2022/11/02 06:39:14;;;;;;;5.97;0.97;;;11.30;99.90;;;;;;4991035;28;20064;-73
2022/11/02 06:41:40;;;;;;;10.17;1.20;;;11.30;99.90;;;;;;4999069;28;20483;-73
2022/11/02 06:44:06;;;;;;;7.63;1.20;;;11.30;99.90;;;;;;4991788;28;20046;-73
2022/11/02 06:46:31;;;;;;;8.23;1.00;;;11.20;99.90;;;;;;5004669;28;20288;-73
2022/11/02 06:48:57;;;;;;;6.30;1.53;;;11.30;99.90;;;;;;5008030;28;20103;-73
2022/11/02 06:51:23;;;;;;;4.78;1.63;;;11.30;99.90;;;;;;5007230;28;20312;-73
2022/11/02 06:53:49;;;;;;;3.93;0.60;;;11.30;99.90;;;;;;4988579;28;20042;-73
2022/11/02 06:56:14;;;;;;;5.10;1.20;;;11.30;99.90;;;;;;5006615;28;20069;-75
2022/11/02 06:58:40;;;;;;;4.00;0.73;;;11.40;99.90;;;;;;4992240;28;20418;-77
2022/11/02 07:01:07;;;;;;;4.43;1.00;;;11.40;99.90;;;;;;5009304;28;20038;-74
2022/11/02 07:03:33;;;;;;;4.07;0.90;;;11.40;99.90;;;;;;4990464;28;20124;-74
2022/11/02 07:05:59;;;;;;;5.07;0.95;;;11.30;99.90;;;;;;4989835;28;20348;-74
2022/11/02 07:08:26;;;;;;;4.80;0.70;;;11.30;99.90;;;;;;4989055;28;20099;-74
2022/11/02 07:10:53;;;;;;;4.43;0.60;;;11.30;99.90;;;;;;4982728;28;20341;-74
2022/11/02 07:13:18;;;;;;;2.70;1.33;;;11.30;99.90;;;;;;5006194;28;20045;-74
2022/11/02 07:15:44;;;;;;;2.90;0.60;;;11.20;99.90;;;;;;4973377;28;20383;-74
2022/11/02 07:18:11;;;;;;;2.65;0.75;;;11.10;99.90;;;;;;4987613;28;20050;-74
2022/11/02 07:20:37;;;;;;;6.60;1.33;;;11.10;99.90;;;;;;4990051;28;20045;-74
2022/11/02 07:23:04;;;;;;;5.30;0.60;;;11.10;99.90;;;;;;4988246;28;20046;-74
2022/11/02 07:25:31;;;;;;;2.40;0.60;;;11.00;99.90;;;;;;5004919;28;20111;-74
2022/11/02 07:28:01;;;;;;;2.60;0.32;;;11.00;99.90;;;;;;5006619;28;20150;-74
2022/11/02 07:30:28;;;;;;;2.80;0.47;;;11.00;99.90;;;;;;5000810;28;20045;-74
2022/11/02 07:32:54;;;;;;;4.60;0.60;;;10.90;99.90;;;;;;5006135;28;20125;-74
2022/11/02 07:35:19;;;;;;;3.20;0.60;;;10.90;99.90;;;;;;4986116;28;20369;-74
2022/11/02 07:37:54;;;;;;;3.13;0.77;;;10.90;99.90;;;;;;4987784;28;20037;-74
2022/11/02 07:40:21;;;;;;;4.07;0.75;;;10.90;99.90;;;;;;4993511;28;20290;-74
2022/11/02 07:42:46;;;;;;;2.88;1.05;;;10.90;99.90;;;;;;4986337;28;20128;-74
2022/11/02 07:45:12;;;;;;;2.77;0.70;;;10.90;99.90;;;;;;4983196;28;20126;-74
2022/11/02 07:47:45;;;;;;;5.28;0.63;;;10.90;99.90;;;;;;5002310;28;20042;-73
2022/11/02 07:50:13;;;;;;;4.03;0.70;;;10.90;99.90;;;;;;5006377;28;20048;-73
2022/11/02 07:52:50;;;;;;;5.05;0.80;;;10.90;99.90;;;;;;5004275;28;20269;-73
2022/11/02 07:55:18;;;;;;;4.15;0.55;;;10.90;99.90;;;;;;5001344;28;20088;-74
2022/11/02 07:58:15;;;;;;;4.47;0.80;;;10.90;99.90;;;;;;5005295;28;20159;-74
2022/11/02 08:00:41;;;;;;;4.88;0.63;;;10.90;99.90;;;;;;4987702;28;20097;-74
2022/11/02 08:03:08;;;;;;;2.75;0.70;;;11.00;99.90;;;;;;5015158;28;20124;-74
2022/11/02 08:05:36;;;;;;;5.18;0.93;;;11.00;99.90;;;;;;5003200;28;20057;-73
2022/11/02 08:08:07;;;;;;;6.93;0.70;;;11.10;99.90;;;;;;4972674;28;20049;-74
2022/11/02 08:10:34;;;;;;;4.85;1.30;;;11.10;99.90;;;;;;4983754;28;20121;-73
2022/11/02 08:13:00;;;;;;;5.05;0.63;;;11.10;99.90;;;;;;5007137;28;20044;-73
2022/11/02 08:15:25;;;;;;;6.73;1.43;;;11.20;99.90;;;;;;5001368;28;20042;-73
2022/11/02 08:18:08;;;;;;;7.43;0.77;;;11.10;99.90;;;;;;5005443;28;20083;-74
2022/11/02 08:20:35;;;;;;;4.53;1.17;;;11.20;99.90;;;;;;4988093;28;20126;-74
2022/11/02 08:23:01;;;;;;;;;;;11.30;99.90;;;;;;5006307;28;20120;-73
2022/11/02 08:25:26;;;;;;;6.03;0.80;;;11.30;99.90;;;;;;5006151;28;19921;-74
2022/11/02 08:27:57;;;;;;;3.97;0.90;;;11.30;99.90;;;;;;5006575;28;20129;-73
2022/11/02 08:30:23;;;;;;;2.33;0.80;;;11.30;99.90;;;;;;5006181;28;20283;-74
2022/11/02 08:32:49;;;;;;;9.00;0.95;;;11.40;99.90;;;;;;4981670;28;20037;-73
2022/11/02 08:35:15;;;;;;;6.57;1.33;;;11.40;99.90;;;;;;4989996;28;20117;-74
2022/11/02 08:37:40;;;;;;;4.43;0.90;;;11.30;99.90;;;;;;5005445;28;20271;-73
2022/11/02 08:40:07;;;;;;;4.27;1.63;;;11.40;99.90;;;;;;5004962;28;20104;-73
2022/11/02 08:42:33;;;;;;;4.57;0.90;;;11.50;99.90;;;;;;5006372;28;20368;-73
2022/11/02 08:44:58;;;;;;;9.18;1.13;;;11.50;99.90;;;;;;5005422;28;20045;-73
2022/11/02 08:47:24;;;;;;;5.87;1.00;;;11.60;99.90;;;;;;4987643;28;20381;-74
2022/11/02 08:49:50;;;;;;;4.30;1.20;;;11.70;99.90;;;;;;5005569;28;20045;-73
2022/11/02 08:52:17;;;;;;;5.32;1.25;;;11.70;99.90;;;;;;4994232;28;20769;-74
2022/11/02 08:54:43;;;;;;;6.00;0.70;;;11.70;99.90;;;;;;4973039;28;20124;-73
2022/11/02 08:57:08;;;;;;;2.78;0.90;;;11.80;99.90;;;;;;5006014;28;20042;-73
2022/11/02 08:59:34;;;;;;;5.07;1.13;;;11.80;99.90;;;;;;4988035;28;20487;-73
2022/11/02 09:02:00;;;;;;;5.50;1.57;;;11.90;99.90;;;;;;5011352;28;20041;-73
2022/11/02 09:04:25;;;;;;;9.70;1.02;;;11.90;99.90;;;;;;5016316;22;20042;-73
2022/11/02 09:06:51;;;;;;;6.43;1.60;;;11.90;99.90;;;;;;4963608;28;20050;-73
2022/11/02 09:09:17;;;;;;;5.20;1.43;;;12.00;99.90;;;;;;4968176;28;20279;-73
2022/11/02 09:11:42;;;;;;;4.60;1.53;;;12.10;99.90;;;;;;4986908;28;20295;-73
2022/11/02 09:14:08;;;;;;;5.10;1.03;;;12.10;99.90;;;;;;4981650;28;20050;-73
2022/11/02 09:16:34;;;;;;;4.05;1.42;;;12.10;99.90;;;;;;4989720;28;20125;-73
2022/11/02 09:19:00;;;;;;;6.28;1.30;;;12.20;99.90;;;;;;4988402;28;20042;-73
2022/11/02 09:21:26;;;;;;;6.57;1.60;;;12.20;99.90;;;;;;4961750;28;20038;-73
2022/11/02 09:23:51;;;;;;;5.60;1.10;;;12.20;99.90;;;;;;4993039;28;20046;-73
2022/11/02 09:26:17;;;;;;;4.07;1.10;;;12.20;99.90;;;;;;4976744;28;20069;-73
2022/11/02 09:28:42;;;;;;;5.13;1.30;;;12.20;99.90;;;;;;4970888;28;20050;-73
2022/11/02 09:31:09;;;;;;;3.73;1.10;;;12.20;99.90;;;;;;4974066;28;20037;-73
2022/11/02 09:33:35;;;;;;;4.03;1.17;;;12.20;99.90;;;;;;4973180;28;20034;-73
2022/11/02 09:36:02;;;;;;;7.85;1.67;;;12.30;99.90;;;;;;4972762;28;20056;-73
2022/11/02 09:38:28;;;;;;;3.90;0.98;;;12.30;99.90;;;;;;4965426;28;20112;-73
2022/11/02 09:41:01;;;;;;;6.75;1.60;;;12.40;99.90;;;;;;4984910;28;20459;-73
2022/11/02 09:43:40;;;;;;;4.35;1.50;;;12.40;99.90;;;;;;4979442;28;20049;-73
2022/11/02 09:46:12;;;;;;;6.63;1.13;;;12.50;99.90;;;;;;4997150;28;20039;-73
2022/11/02 09:48:44;;;;;;;3.65;0.63;;;12.60;99.90;;;;;;4966666;28;20126;-73
2022/11/02 09:51:16;;;;;;;4.55;0.75;;;12.70;99.90;;;;;;4989091;28;20042;-73
2022/11/02 09:54:14;;;;;;;4.72;1.35;;;12.90;99.90;;;;;;4968795;28;20074;-74
2022/11/02 09:56:42;;;;;;;5.15;0.68;;;13.00;99.90;;;;;;4966618;28;20396;-73
2022/11/02 09:59:15;;;;;;;7.80;0.95;;;13.10;99.90;;;;;;4976320;28;20092;-73
2022/11/02 10:01:54;;;;;;;5.65;1.75;;;13.10;99.90;;;;;;4970007;28;20136;-73
2022/11/02 10:04:28;;;;;;;4.63;0.88;;;13.10;99.90;;;;;;4984373;28;20169;-73
2022/11/02 10:07:37;;;;;;;6.35;0.90;;;13.20;99.90;;;;;;4963398;28;20034;-73
2022/11/02 10:10:27;;;;;;;5.38;1.00;;;13.20;99.90;;;;;;4966674;28;20090;-74
2022/11/02 10:12:58;;;;;;;5.97;0.90;;;13.30;99.90;;;;;;4986567;28;20609;-73
2022/11/02 10:15:35;;;;;;;6.18;1.30;;;13.40;99.90;;;;;;4988012;28;20034;-73
2022/11/02 10:18:02;;;;;;;8.50;2.08;;;13.40;99.90;;;;;;4972156;28;20523;-74
2022/11/02 10:20:31;;;;;;;8.85;0.90;;;13.60;99.90;;;;;;4972476;28;20077;-73
2022/11/02 10:23:02;;;;;;;5.10;0.88;;;13.60;99.90;;;;;;4996910;28;20105;-73
2022/11/02 10:25:28;;;;;;;6.53;1.02;;;13.70;99.90;;;;;;4993819;28;20042;-73
2022/11/02 10:28:03;;;;;;;3.50;0.80;;;13.70;99.90;;;;;;4971426;28;20034;-73
2022/11/02 10:30:31;;;;;;;9.40;1.77;;;13.70;99.90;;;;;;4977526;28;20132;-72
2022/11/02 10:32:57;;;;;;;10.07;1.00;;;13.80;99.90;;;;;;4991045;28;20033;-73
2022/11/02 10:35:23;;;;;;;;;;;13.70;99.90;;;;;;4951158;28;20047;-73
2022/11/02 10:38:03;;;;;;;3.80;0.88;;;13.70;99.90;;;;;;4992625;28;19933;-73
2022/11/02 10:40:41;;;;;;;8.07;1.00;;;13.80;99.90;;;;;;4962364;28;20074;-73
2022/11/02 10:43:27;;;;;;;5.20;0.73;;;13.80;99.90;;;;;;4972801;28;20515;-73
2022/11/02 10:46:06;;;;;;;8.23;1.27;;;13.90;99.90;;;;;;4995829;28;20145;-73
2022/11/02 10:49:01;;;;;;;11.60;1.33;;;13.90;99.90;;;;;;4987522;28;20047;-73
2022/11/02 10:51:29;;;;;;;4.28;0.60;;;13.90;99.90;;;;;;4978376;28;20456;-72
2022/11/02 10:53:55;;;;;;;4.97;1.00;;;13.90;99.90;;;;;;4975966;28;20046;-72
2022/11/02 10:56:22;;;;;;;;;;;13.90;99.90;;;;;;4976592;28;20392;-73
2022/11/02 10:59:23;;;;;;;4.13;1.13;;;13.90;99.90;;;;;;4988150;28;20017;-73
2022/11/02 11:01:57;;;;;;;7.95;1.10;;;13.90;99.90;;;;;;4966840;28;20058;-72
2022/11/02 11:04:25;;;;;;;9.98;1.73;;;13.80;99.90;;;;;;4969793;28;20306;-72
2022/11/02 11:06:51;;;;;;;8.02;1.00;;;13.70;99.90;;;;;;4996256;28;20128;-72
2022/11/02 11:09:22;;;;;;;4.53;1.05;;;13.70;99.90;;;;;;4968980;28;20431;-73
2022/11/02 11:12:45;;;;;;;6.70;1.20;;;13.70;99.90;;;;;;4971059;28;20041;-73
2022/11/02 11:15:22;;;;;;;4.10;0.93;;;13.70;99.90;;;;;;4936884;28;20054;-73
2022/11/02 11:17:49;;;;;;;6.30;0.77;;;13.70;99.90;;;;;;4983594;28;20034;-73
2022/11/02 11:20:38;;;;;;;2.28;0.77;;;13.80;99.90;;;;;;4984565;28;20037;-73
2022/11/02 11:23:22;;;;;;;4.97;1.05;;;13.80;99.90;;;;;;4960962;28;20054;-73
2022/11/02 11:25:56;;;;;;;3.97;0.63;;;13.80;99.90;;;;;;4979882;28;20109;-73
2022/11/02 11:28:45;;;;;;;4.30;0.57;;;13.90;99.90;;;;;;4988382;28;20125;-73
2022/11/02 11:31:14;;;;;;;2.90;0.82;;;14.00;99.90;;;;;;4959320;28;20079;-73
2022/11/02 11:34:00;;;;;;;3.60;0.63;;;14.10;99.90;;;;;;4979794;28;20114;-73
2022/11/02 11:36:27;;;;;;;3.13;0.63;;;14.20;99.90;;;;;;4974837;28;20038;-73
2022/11/02 11:38:57;;;;;;;3.17;0.85;;;14.30;99.90;;;;;;4991112;28;20050;-73
2022/11/02 11:41:23;;;;;;;5.72;0.73;;;14.40;99.90;;;;;;4990340;28;20045;-73
2022/11/02 11:43:51;;;;;;;5.47;0.73;;;14.50;99.90;;;;;;4960210;28;20413;-73
2022/11/02 11:46:17;;;;;;;4.20;0.65;;;14.60;99.90;;;;;;4964043;28;20047;-73
2022/11/02 11:48:53;;;;;;;8.05;1.67;;;14.70;99.90;;;;;;4967554;28;20060;-73
2022/11/02 11:51:30;;;;;;;6.30;0.75;;;14.70;99.90;;;;;;4969630;28;20110;-73
2022/11/02 11:54:31;;;;;;;2.75;0.60;;;14.60;99.90;;;;;;4964971;28;20053;-73
2022/11/02 11:57:26;;;;;;;5.07;0.68;;;14.60;99.90;;;;;;4966454;28;20041;-73
2022/11/02 11:59:57;;;;;;;8.88;0.90;;;14.70;99.90;;;;;;4987494;28;20042;-73
2022/11/02 12:02:27;;;;;;;6.35;1.05;;;14.80;99.90;;;;;;4983707;28;20060;-73
2022/11/02 12:05:02;;;;;;;4.97;0.57;;;14.70;99.90;;;;;;4969974;28;20037;-73
2022/11/02 12:07:52;;;;;;;5.90;0.63;;;14.60;99.90;;;;;;4973264;28;20062;-73
2022/11/02 12:10:36;;;;;;;5.15;1.05;;;14.50;99.90;;;;;;4978597;28;20034;-73
2022/11/02 12:13:05;;;;;;;4.28;0.88;;;14.40;99.90;;;;;;4982817;28;20041;-73
2022/11/02 12:15:53;;;;;;;8.48;1.00;;;14.30;99.90;;;;;;4983371;28;20042;-73
2022/11/02 12:18:33;;;;;;;5.50;1.00;;;14.30;99.90;;;;;;4969363;28;20198;-73
2022/11/02 12:21:28;;;;;;;3.30;0.63;;;14.30;99.90;;;;;;4991953;28;20189;-73
2022/11/02 12:24:06;;;;;;;8.45;1.15;;;14.30;99.90;;;;;;4938690;28;20105;-74
2022/11/02 12:27:07;;;;;;;8.65;1.40;;;14.30;99.90;;;;;;4974114;28;20077;-73
2022/11/02 12:29:38;;;;;;;3.80;0.63;;;14.50;99.90;;;;;;4991676;28;20137;-73
2022/11/02 12:32:22;;;;;;;7.80;1.45;;;14.70;99.90;;;;;;4963405;28;20587;-73
2022/11/02 12:35:08;;;;;;;4.32;1.10;;;14.80;99.90;;;;;;4985161;28;20088;-72
2022/11/02 12:38:07;;;;;;;8.75;2.15;;;14.90;99.90;;;;;;4993000;28;20116;-74
2022/11/02 12:40:54;;;;;;;8.50;1.40;;;15.00;99.90;;;;;;4990065;28;20042;-72
2022/11/02 12:43:46;;;;;;;2.83;0.50;;;15.10;99.90;;;;;;4974104;28;20522;-74
2022/11/02 12:46:36;;;;;;;6.22;0.88;;;15.20;99.90;;;;;;4967201;28;20481;-73
2022/11/02 12:49:12;;;;;;;2.90;0.85;;;15.20;99.90;;;;;;4974812;28;20185;-73
2022/11/02 12:51:55;;;;;;;3.10;0.77;;;15.30;99.90;;;;;;4984061;28;20320;-73
2022/11/02 12:54:44;;;;;;;3.67;0.68;;;15.30;99.90;;;;;;4976119;28;20494;-73
2022/11/02 12:57:17;;;;;;;6.32;1.63;;;15.40;99.90;;;;;;4966552;28;20392;-73
2022/11/02 12:59:44;;;;;;;3.60;0.80;;;15.40;99.90;;;;;;4979355;28;20038;-73
2022/11/02 13:02:46;;;;;;;3.47;0.60;;;15.50;99.90;;;;;;4969780;28;20050;-73
2022/11/02 13:05:19;;;;;;;6.75;0.80;;;15.60;99.90;;;;;;4995097;28;20065;-73
2022/11/02 13:08:17;;;;;;;7.20;1.15;;;15.60;99.90;;;;;;4969723;28;20404;-73
2022/11/02 13:10:53;;;;;;;4.22;0.77;;;15.60;99.90;;;;;;4970926;28;20047;-73
2022/11/02 13:13:39;;;;;;;4.43;0.70;;;15.70;99.90;;;;;;4977875;28;20121;-73
2022/11/02 13:16:08;;;;;;;4.93;0.70;;;15.70;99.90;;;;;;4971157;28;20054;-73
2022/11/02 13:18:48;;;;;;;5.75;1.23;;;15.70;99.90;;;;;;4975467;28;20069;-73
2022/11/02 13:21:19;;;;;;;8.68;1.30;;;15.70;99.90;;;;;;4976837;28;20049;-72
2022/11/02 13:23:50;;;;;;;4.68;1.00;;;15.60;99.90;;;;;;4977111;28;20060;-72
2022/11/02 13:26:27;;;;;;;7.93;1.42;;;15.50;99.90;;;;;;4998659;28;20508;-73